Time;durP1;ratioP1;P1;durP2;ratioP2;P2;SDS_P1;SDS_P2;PMS_P1;PMS_P2;Temp;Humidity;BMP_temperature;BMP_pressure;BME280_temperature;BME280_humidity;BME280_pressure;Samples;Min_cycle;Max_cycle;Signal;HPM_P1;HPM_P2
2023/03/05 00:01:24;;;;;;;2.05;1.60;;;8.70;76.70;;;;;;4917290;29;20082;-83
2023/03/05 00:03:52;;;;;;;3.10;1.60;;;8.70;76.70;;;;;;4932898;29;20036;-83
2023/03/05 00:06:23;;;;;;;1.92;1.70;;;8.70;76.70;;;;;;4932994;29;20036;-83
2023/03/05 00:08:48;;;;;;;1.40;1.30;;;8.60;76.70;;;;;;4917247;29;20358;-83
2023/03/05 00:11:15;;;;;;;2.88;1.52;;;8.70;76.80;;;;;;4917877;29;20086;-84
2023/03/05 00:13:41;;;;;;;1.88;1.42;;;8.60;76.80;;;;;;4916474;29;20044;-83
2023/03/05 00:16:10;;;;;;;2.25;1.48;;;8.60;76.80;;;;;;4900785;29;20461;-85
2023/03/05 00:18:36;;;;;;;2.65;1.40;;;8.60;76.90;;;;;;4901091;29;20469;-83
2023/03/05 00:21:03;;;;;;;2.15;1.20;;;8.60;76.90;;;;;;4901013;29;20489;-83
2023/03/05 00:23:29;;;;;;;2.15;1.42;;;8.60;76.90;;;;;;4901072;29;20080;-85
2023/03/05 00:25:54;;;;;;;2.85;1.30;;;8.60;76.90;;;;;;4900912;29;20016;-84
2023/03/05 00:28:20;;;;;;;1.90;1.50;;;8.50;76.90;;;;;;4917069;29;20040;-83
2023/03/05 00:30:46;;;;;;;2.38;1.58;;;8.50;76.90;;;;;;4901569;29;20564;-83
2023/03/05 00:33:12;;;;;;;1.55;1.40;;;8.50;77.00;;;;;;4920410;29;20039;-83
2023/03/05 00:35:44;;;;;;;3.05;1.63;;;8.50;77.00;;;;;;4904750;29;20029;-83
2023/03/05 00:38:10;;;;;;;1.40;1.27;;;8.50;77.00;;;;;;4935956;29;20087;-84
2023/03/05 00:40:37;;;;;;;2.50;1.73;;;8.50;77.00;;;;;;4920906;29;20037;-83
2023/03/05 00:43:04;;;;;;;1.80;1.45;;;8.50;77.00;;;;;;4904947;29;20598;-84
2023/03/05 00:45:29;;;;;;;3.15;1.50;;;8.50;77.00;;;;;;4904923;29;20032;-83
2023/03/05 00:47:55;;;;;;;1.95;1.55;;;8.50;77.00;;;;;;4904520;29;20036;-84
2023/03/05 00:50:21;;;;;;;1.75;1.35;;;8.40;77.00;;;;;;4904472;29;20036;-86
2023/03/05 00:52:46;;;;;;;2.22;1.67;;;8.50;77.00;;;;;;4921900;29;20032;-84
2023/03/05 00:55:12;;;;;;;2.30;1.60;;;8.40;77.00;;;;;;4909127;29;20103;-83
2023/03/05 00:57:38;;;;;;;4.22;1.80;;;8.40;77.00;;;;;;4909560;29;20040;-84
2023/03/05 01:00:06;;;;;;;2.60;1.70;;;8.40;77.00;;;;;;4905371;29;20465;-83
2023/03/05 01:02:32;;;;;;;2.80;1.63;;;8.40;77.10;;;;;;4919665;29;20036;-84
2023/03/05 01:04:57;;;;;;;1.90;1.60;;;8.40;77.10;;;;;;4904304;29;20024;-83
2023/03/05 01:07:23;;;;;;;2.00;1.60;;;8.40;77.10;;;;;;4919679;29;20036;-83
2023/03/05 01:09:49;;;;;;;1.55;1.45;;;8.40;77.10;;;;;;4919617;29;20036;-83
2023/03/05 01:12:15;;;;;;;1.95;1.40;;;8.40;77.10;;;;;;4919499;29;20123;-83
2023/03/05 01:14:40;;;;;;;1.80;1.60;;;8.40;77.10;;;;;;4904010;29;20380;-83
2023/03/05 01:17:07;;;;;;;2.78;1.60;;;8.30;77.10;;;;;;4903804;29;20043;-83
2023/03/05 01:19:33;;;;;;;2.78;1.67;;;8.30;77.10;;;;;;4935122;29;20032;-82
2023/03/05 01:21:59;;;;;;;1.75;1.45;;;8.30;77.10;;;;;;4903807;29;20033;-83
2023/03/05 01:24:25;;;;;;;1.85;1.40;;;8.30;77.10;;;;;;4888113;29;20509;-83
2023/03/05 01:26:51;;;;;;;2.22;1.45;;;8.30;77.10;;;;;;4903481;29;20552;-85
2023/03/05 01:29:17;;;;;;;1.98;1.45;;;8.30;77.10;;;;;;4935400;29;20028;-84
2023/03/05 01:31:42;;;;;;;2.35;1.50;;;8.30;77.10;;;;;;4934932;29;20059;-83
2023/03/05 01:34:08;;;;;;;3.33;1.65;;;8.30;77.10;;;;;;4903742;29;20040;-83
2023/03/05 01:36:34;;;;;;;2.33;1.77;;;8.30;77.10;;;;;;4904085;29;20334;-83
2023/03/05 01:39:01;;;;;;;2.45;1.67;;;8.30;77.20;;;;;;4903466;29;20036;-83
2023/03/05 01:41:27;;;;;;;3.28;1.65;;;8.30;77.10;;;;;;4918896;29;20036;-83
2023/03/05 01:43:53;;;;;;;2.60;1.67;;;8.30;77.10;;;;;;4902676;29;20122;-83
2023/03/05 01:46:27;;;;;;;1.98;1.45;;;8.20;77.10;;;;;;4919104;29;20065;-83
2023/03/05 01:48:57;;;;;;;3.10;1.73;;;8.30;77.20;;;;;;4918729;29;20035;-83
2023/03/05 01:51:26;;;;;;;2.08;1.80;;;8.30;77.10;;;;;;4903113;29;20040;-84
2023/03/05 01:53:53;;;;;;;1.70;1.60;;;8.20;77.10;;;;;;4902883;29;20496;-84
2023/03/05 01:56:20;;;;;;;1.90;1.50;;;8.20;77.10;;;;;;4902846;29;20024;-83
2023/03/05 01:58:46;;;;;;;2.63;1.65;;;8.20;77.10;;;;;;4918957;29;20485;-83
2023/03/05 02:01:12;;;;;;;2.15;1.40;;;8.20;77.20;;;;;;4934595;29;20044;-84
2023/03/05 02:03:39;;;;;;;3.13;1.40;;;8.20;77.30;;;;;;4919365;29;20028;-83
2023/03/05 02:06:05;;;;;;;1.70;1.50;;;8.20;77.20;;;;;;4918629;29;20032;-83
2023/03/05 02:08:31;;;;;;;2.88;1.70;;;8.20;77.20;;;;;;4934524;29;20050;-83
2023/03/05 02:10:56;;;;;;;2.60;1.50;;;8.20;77.20;;;;;;4918605;29;20040;-83
2023/03/05 02:13:28;;;;;;;2.22;1.60;;;8.20;77.30;;;;;;4919104;29;20032;-83
2023/03/05 02:15:56;;;;;;;1.73;1.50;;;8.20;77.20;;;;;;4902857;29;20032;-83
2023/03/05 02:18:23;;;;;;;2.40;1.63;;;8.20;77.20;;;;;;4934637;29;20485;-83
2023/03/05 02:20:50;;;;;;;1.67;1.45;;;8.10;77.10;;;;;;4903087;29;20040;-83
2023/03/05 02:23:17;;;;;;;2.67;1.67;;;8.10;77.20;;;;;;4933992;29;20032;-83
2023/03/05 02:25:44;;;;;;;2.00;1.50;;;8.10;77.20;;;;;;4933930;29;20068;-84
2023/03/05 02:28:23;;;;;;;3.70;2.05;;;8.10;77.20;;;;;;4918142;29;20460;-83
2023/03/05 02:30:49;;;;;;;2.47;1.58;;;8.10;77.30;;;;;;4902029;29;20042;-83
2023/03/05 02:33:17;;;;;;;1.58;1.35;;;8.10;77.30;;;;;;4919542;29;20032;-83
2023/03/05 02:35:45;;;;;;;2.58;1.60;;;8.10;77.30;;;;;;4918801;29;20123;-83
2023/03/05 02:38:13;;;;;;;2.25;1.70;;;8.10;77.30;;;;;;4902268;29;20087;-82
2023/03/05 02:40:39;;;;;;;2.53;1.75;;;8.10;77.30;;;;;;4901880;29;20083;-84
2023/03/05 02:43:05;;;;;;;3.70;1.63;;;8.10;77.30;;;;;;4902072;29;20024;-85
2023/03/05 02:45:31;;;;;;;2.15;1.52;;;8.00;77.30;;;;;;4917668;29;20500;-84
2023/03/05 02:47:56;;;;;;;2.15;1.58;;;8.00;77.30;;;;;;4918853;29;20372;-84
2023/03/05 02:50:23;;;;;;;1.85;1.63;;;8.00;77.40;;;;;;4902344;29;20473;-83
2023/03/05 02:52:49;;;;;;;2.33;1.50;;;8.00;77.30;;;;;;4918483;29;20036;-83
2023/03/05 02:55:16;;;;;;;1.85;1.50;;;8.00;77.30;;;;;;4917621;29;20477;-83
2023/03/05 02:57:43;;;;;;;2.40;1.60;;;8.00;77.30;;;;;;4918329;29;20028;-83
2023/03/05 03:00:09;;;;;;;2.17;1.50;;;8.00;77.30;;;;;;4902744;29;20477;-83
2023/03/05 03:02:35;;;;;;;1.67;1.50;;;8.00;77.30;;;;;;4918550;29;20472;-83
2023/03/05 03:05:01;;;;;;;2.35;1.73;;;8.00;77.30;;;;;;4918450;29;20080;-83
2023/03/05 03:07:27;;;;;;;2.55;1.58;;;8.00;77.30;;;;;;4919094;29;20111;-82
2023/03/05 03:09:52;;;;;;;2.85;1.70;;;8.00;77.30;;;;;;4902318;29;20078;-83
2023/03/05 03:12:18;;;;;;;2.75;1.65;;;8.00;77.40;;;;;;4918822;29;20040;-83
2023/03/05 03:14:44;;;;;;;2.60;1.52;;;7.90;77.30;;;;;;4933522;29;20123;-84
2023/03/05 03:17:17;;;;;;;2.15;1.73;;;7.90;77.30;;;;;;4917718;29;20032;-83
2023/03/05 03:19:43;;;;;;;3.13;1.95;;;8.00;77.40;;;;;;4901571;29;20043;-83
2023/03/05 03:22:11;;;;;;;2.58;1.67;;;7.90;77.30;;;;;;4902050;29;20455;-83
2023/03/05 03:24:39;;;;;;;2.22;1.60;;;7.90;77.30;;;;;;4901456;29;20028;-84
2023/03/05 03:27:05;;;;;;;1.70;1.50;;;7.90;77.30;;;;;;4936889;29;20043;-83
2023/03/05 03:29:31;;;;;;;3.80;1.75;;;7.90;77.30;;;;;;4922193;29;20040;-86
2023/03/05 03:31:57;;;;;;;1.90;1.63;;;7.90;77.30;;;;;;4888837;29;20052;-84
2023/03/05 03:34:23;;;;;;;3.47;1.83;;;7.90;77.40;;;;;;4917399;29;20036;-84
2023/03/05 03:36:51;;;;;;;2.00;1.45;;;7.90;77.40;;;;;;4917377;29;20039;-84
2023/03/05 03:39:18;;;;;;;3.05;1.90;;;7.90;77.40;;;;;;4933001;29;20377;-85
2023/03/05 03:41:49;;;;;;;3.35;2.08;;;7.90;77.30;;;;;;4917096;29;20035;-84
2023/03/05 03:44:17;;;;;;;2.45;1.77;;;7.90;77.30;;;;;;4901306;29;20087;-84
2023/03/05 03:46:45;;;;;;;3.03;1.73;;;7.90;77.30;;;;;;4901320;29;20465;-83
2023/03/05 03:49:31;;;;;;;2.55;1.80;;;7.90;77.40;;;;;;4933299;29;20059;-83
2023/03/05 03:51:59;;;;;;;3.50;1.90;;;7.90;77.40;;;;;;4901311;29;20489;-84
2023/03/05 03:54:25;;;;;;;2.92;1.75;;;7.80;77.30;;;;;;4933215;29;20032;-83
2023/03/05 03:56:51;;;;;;;2.72;1.90;;;7.80;77.30;;;;;;4916726;29;20036;-83
2023/03/05 03:59:17;;;;;;;2.60;1.95;;;7.80;77.30;;;;;;4916918;29;20028;-83
2023/03/05 04:01:43;;;;;;;2.85;1.77;;;7.80;77.30;;;;;;4932525;29;20039;-84
2023/03/05 04:04:11;;;;;;;2.50;1.73;;;7.80;77.30;;;;;;4917780;29;20036;-84
2023/03/05 04:06:37;;;;;;;2.25;1.90;;;7.90;77.40;;;;;;4919493;29;20039;-84
2023/03/05 04:09:04;;;;;;;2.95;1.98;;;7.80;77.40;;;;;;4936734;29;20043;-84
2023/03/05 04:11:30;;;;;;;4.30;1.98;;;7.80;77.40;;;;;;4905150;29;20036;-86
2023/03/05 04:13:55;;;;;;;1.70;1.60;;;7.80;77.30;;;;;;4904478;29;20031;-85
2023/03/05 04:16:22;;;;;;;4.47;2.30;;;7.80;77.30;;;;;;4920674;29;20032;-84
2023/03/05 04:18:49;;;;;;;2.20;1.75;;;7.80;77.40;;;;;;4904355;29;20028;-84
2023/03/05 04:21:14;;;;;;;2.92;1.85;;;7.80;77.40;;;;;;4904646;29;20522;-82
2023/03/05 04:23:40;;;;;;;3.00;1.90;;;7.80;77.40;;;;;;4905097;29;20036;-84
2023/03/05 04:26:06;;;;;;;2.92;1.67;;;7.80;77.40;;;;;;4904550;29;20124;-85
2023/03/05 04:28:32;;;;;;;4.13;1.80;;;7.70;77.40;;;;;;4920930;29;20032;-84
2023/03/05 04:30:58;;;;;;;3.78;1.98;;;7.80;77.40;;;;;;4904238;29;20126;-85
2023/03/05 04:33:24;;;;;;;2.72;1.88;;;7.70;77.30;;;;;;4904412;29;20140;-84
2023/03/05 04:35:50;;;;;;;2.13;1.90;;;7.70;77.40;;;;;;4904128;29;20025;-85
2023/03/05 04:38:16;;;;;;;3.20;1.80;;;7.70;77.40;;;;;;4921083;29;20147;-84
2023/03/05 04:40:43;;;;;;;3.00;1.88;;;7.70;77.40;;;;;;4904543;29;20036;-84
2023/03/05 04:43:09;;;;;;;2.47;1.85;;;7.70;77.40;;;;;;4935772;29;20051;-84
2023/03/05 04:45:35;;;;;;;2.45;1.75;;;7.70;77.40;;;;;;4904295;29;20040;-82
2023/03/05 04:48:01;;;;;;;2.53;2.10;;;7.70;77.40;;;;;;4935513;29;20116;-86
2023/03/05 04:50:27;;;;;;;2.20;2.00;;;7.70;77.40;;;;;;4920178;29;20071;-84
2023/03/05 04:52:53;;;;;;;2.15;1.67;;;7.70;77.40;;;;;;4919805;29;20035;-84
2023/03/05 04:55:19;;;;;;;2.95;1.95;;;7.70;77.40;;;;;;4935916;29;20032;-84
2023/03/05 04:57:45;;;;;;;2.08;1.80;;;7.70;77.40;;;;;;4904824;29;20338;-83
2023/03/05 05:00:13;;;;;;;2.33;1.80;;;7.70;77.40;;;;;;4904130;29;20040;-83
2023/03/05 05:02:44;;;;;;;2.53;1.83;;;7.70;77.50;;;;;;4921107;29;20024;-84
2023/03/05 05:05:13;;;;;;;2.15;1.55;;;7.70;77.50;;;;;;4935881;29;20025;-84
2023/03/05 05:07:39;;;;;;;2.60;1.63;;;7.70;77.50;;;;;;4903896;29;20032;-84
2023/03/05 05:10:06;;;;;;;2.20;1.50;;;7.60;77.50;;;;;;4903609;29;20050;-84
2023/03/05 05:12:33;;;;;;;2.28;1.70;;;7.60;77.50;;;;;;4935679;29;20084;-83
2023/03/05 05:14:58;;;;;;;2.17;1.60;;;7.60;77.50;;;;;;4903883;29;20043;-84
2023/03/05 05:17:25;;;;;;;2.78;2.17;;;7.60;77.50;;;;;;4887642;29;20389;-84
2023/03/05 05:19:50;;;;;;;2.83;1.90;;;7.60;77.50;;;;;;4904147;29;20139;-83
2023/03/05 05:22:16;;;;;;;2.30;1.60;;;7.60;77.50;;;;;;4935384;29;20119;-85
2023/03/05 05:24:42;;;;;;;1.92;1.75;;;7.60;77.50;;;;;;4888046;29;20036;-84
2023/03/05 05:27:08;;;;;;;2.03;1.88;;;7.60;77.50;;;;;;4887283;29;20544;-84
2023/03/05 05:29:34;;;;;;;2.42;1.70;;;7.60;77.50;;;;;;4934987;29;20036;-84
2023/03/05 05:31:59;;;;;;;3.30;1.70;;;7.60;77.50;;;;;;4903376;29;20056;-84
2023/03/05 05:34:26;;;;;;;2.38;1.70;;;7.60;77.50;;;;;;4919355;29;20066;-83
2023/03/05 05:36:52;;;;;;;2.53;1.60;;;7.60;77.50;;;;;;4935992;29;20066;-85
2023/03/05 05:39:18;;;;;;;1.60;1.50;;;7.60;77.50;;;;;;4919281;29;20040;-83
2023/03/05 05:41:44;;;;;;;2.10;1.80;;;7.60;77.50;;;;;;4903160;29;20082;-84
2023/03/05 05:44:10;;;;;;;2.33;1.70;;;7.60;77.50;;;;;;4919036;29;20040;-84
2023/03/05 05:46:35;;;;;;;2.58;2.08;;;7.60;77.50;;;;;;4935130;29;20035;-84
2023/03/05 05:49:01;;;;;;;2.83;1.80;;;7.60;77.50;;;;;;4903204;29;20040;-85
2023/03/05 05:51:27;;;;;;;2.67;1.73;;;7.60;77.50;;;;;;4919004;29;20044;-83
2023/03/05 05:53:53;;;;;;;1.70;1.60;;;7.60;77.60;;;;;;4919108;29;20036;-84
2023/03/05 05:56:19;;;;;;;2.15;1.65;;;7.50;77.50;;;;;;4919026;29;20039;-84
2023/03/05 05:58:47;;;;;;;1.80;1.50;;;7.60;77.60;;;;;;4887348;29;20028;-84
2023/03/05 06:01:18;;;;;;;2.17;1.63;;;7.50;77.50;;;;;;4922817;29;20044;-84
2023/03/05 06:03:45;;;;;;;1.95;1.77;;;7.50;77.60;;;;;;4907462;29;20103;-84
2023/03/05 06:06:13;;;;;;;2.53;1.70;;;7.60;77.60;;;;;;4936887;29;20039;-84
2023/03/05 06:08:39;;;;;;;2.38;1.85;;;7.50;77.60;;;;;;4903821;29;20028;-84
2023/03/05 06:11:05;;;;;;;1.85;1.60;;;7.50;77.50;;;;;;4918476;29;20044;-86
2023/03/05 06:13:32;;;;;;;2.08;1.67;;;7.50;77.60;;;;;;4919677;29;20060;-84
2023/03/05 06:16:00;;;;;;;2.78;1.70;;;7.50;77.60;;;;;;4902531;29;20024;-84
2023/03/05 06:18:26;;;;;;;2.42;1.83;;;7.50;77.50;;;;;;4903112;29;20411;-85
2023/03/05 06:21:00;;;;;;;2.05;1.60;;;7.50;77.50;;;;;;4919605;29;20040;-84
2023/03/05 06:23:26;;;;;;;1.55;1.40;;;7.50;77.60;;;;;;4902837;29;20142;-84
2023/03/05 06:25:53;;;;;;;1.67;1.50;;;7.50;77.60;;;;;;4918209;29;20032;-83
2023/03/05 06:28:19;;;;;;;1.60;1.45;;;7.50;77.60;;;;;;4918384;29;20084;-83
2023/03/05 06:30:45;;;;;;;2.10;1.70;;;7.50;77.60;;;;;;4918569;29;20123;-84
2023/03/05 06:33:10;;;;;;;1.40;1.30;;;7.50;77.60;;;;;;4918873;29;20075;-83
2023/03/05 06:35:38;;;;;;;2.95;1.63;;;7.50;77.60;;;;;;4917706;29;20497;-83
2023/03/05 06:38:05;;;;;;;1.63;1.48;;;7.50;77.60;;;;;;4918699;29;20059;-83
2023/03/05 06:40:31;;;;;;;1.60;1.45;;;7.50;77.60;;;;;;4933796;29;20044;-84
2023/03/05 06:42:57;;;;;;;4.07;1.70;;;7.40;77.60;;;;;;4918700;29;20092;-83
2023/03/05 06:45:23;;;;;;;3.22;1.85;;;7.50;77.60;;;;;;4934415;29;20491;-84
2023/03/05 06:47:48;;;;;;;2.55;1.77;;;7.40;77.60;;;;;;4918292;29;20059;-84
2023/03/05 06:50:14;;;;;;;1.70;1.60;;;7.40;77.60;;;;;;4934143;29;20036;-85
2023/03/05 06:52:40;;;;;;;1.63;1.52;;;7.40;77.60;;;;;;4933578;29;20034;-84
2023/03/05 06:55:07;;;;;;;1.92;1.70;;;7.40;77.50;;;;;;4901992;29;20374;-84
2023/03/05 06:57:33;;;;;;;1.73;1.60;;;7.40;77.60;;;;;;4902025;29;20083;-83
2023/03/05 06:59:58;;;;;;;1.67;1.58;;;7.40;77.60;;;;;;4918062;29;20044;-84
2023/03/05 07:02:25;;;;;;;1.98;1.58;;;7.40;77.60;;;;;;4917233;29;20176;-83
2023/03/05 07:04:51;;;;;;;1.90;1.42;;;7.50;77.60;;;;;;4917804;29;20036;-83
2023/03/05 07:07:17;;;;;;;2.60;1.75;;;7.40;77.60;;;;;;4902042;29;20028;-84
2023/03/05 07:09:44;;;;;;;1.80;1.70;;;7.40;77.60;;;;;;4886366;29;20391;-84
2023/03/05 07:12:11;;;;;;;2.83;1.77;;;7.40;77.50;;;;;;4901523;29;20048;-83
2023/03/05 07:14:37;;;;;;;2.08;1.60;;;7.40;77.50;;;;;;4902409;29;20055;-84
2023/03/05 07:17:07;;;;;;;2.65;1.90;;;7.40;77.60;;;;;;4902265;29;20178;-83
2023/03/05 07:19:33;;;;;;;2.05;1.88;;;7.40;77.60;;;;;;4933576;29;20036;-84
2023/03/05 07:21:59;;;;;;;1.60;1.50;;;7.50;77.60;;;;;;4885992;29;20028;-83
2023/03/05 07:24:28;;;;;;;2.53;1.70;;;7.40;77.60;;;;;;4901967;29;20484;-84
2023/03/05 07:26:57;;;;;;;1.60;1.48;;;7.40;77.60;;;;;;4918250;29;20409;-83
2023/03/05 07:29:25;;;;;;;2.00;1.60;;;7.40;77.60;;;;;;4916760;29;20083;-82
2023/03/05 07:31:51;;;;;;;1.92;1.70;;;7.40;77.60;;;;;;4901125;29;20040;-82
2023/03/05 07:34:17;;;;;;;2.03;1.83;;;7.40;77.60;;;;;;4932996;29;20400;-83
2023/03/05 07:36:43;;;;;;;1.67;1.58;;;7.40;77.60;;;;;;4901732;29;20039;-82
2023/03/05 07:39:11;;;;;;;1.55;1.40;;;7.40;77.60;;;;;;4916604;29;20029;-84
2023/03/05 07:41:37;;;;;;;1.88;1.65;;;7.50;77.70;;;;;;4900617;29;20520;-82
2023/03/05 07:44:04;;;;;;;1.70;1.60;;;7.40;77.60;;;;;;4917395;29;20028;-82
2023/03/05 07:46:32;;;;;;;2.17;1.52;;;7.40;77.70;;;;;;4917812;29;20119;-82
2023/03/05 07:48:59;;;;;;;2.05;1.70;;;7.40;77.60;;;;;;4917992;29;20473;-83
2023/03/05 07:51:26;;;;;;;2.10;1.70;;;7.40;77.60;;;;;;4916944;29;20028;-83
2023/03/05 07:53:53;;;;;;;1.85;1.60;;;7.40;77.60;;;;;;4901251;29;20039;-83
2023/03/05 07:56:24;;;;;;;1.60;1.50;;;7.40;77.60;;;;;;4917482;29;20095;-83
2023/03/05 07:58:49;;;;;;;3.30;1.67;;;7.50;77.70;;;;;;4901079;29;20028;-82
2023/03/05 08:01:15;;;;;;;1.75;1.63;;;7.50;77.70;;;;;;4916567;29;20039;-83
2023/03/05 08:03:42;;;;;;;2.05;1.48;;;7.50;77.70;;;;;;4932702;29;20028;-82
2023/03/05 08:06:09;;;;;;;1.95;1.60;;;7.50;77.80;;;;;;4933253;29;20032;-82
2023/03/05 08:08:35;;;;;;;1.85;1.67;;;7.50;77.80;;;;;;4900770;29;20123;-83
2023/03/05 08:11:06;;;;;;;3.85;1.83;;;7.50;77.80;;;;;;4885622;29;20036;-83
2023/03/05 08:13:32;;;;;;;1.70;1.58;;;7.50;77.80;;;;;;4916581;29;20036;-82
2023/03/05 08:15:58;;;;;;;1.67;1.58;;;7.50;77.70;;;;;;4918486;29;20052;-83
2023/03/05 08:18:24;;;;;;;1.60;1.50;;;7.50;77.70;;;;;;4901530;29;20071;-83
2023/03/05 08:20:50;;;;;;;1.73;1.63;;;7.50;77.70;;;;;;4917218;29;20040;-82
2023/03/05 08:23:16;;;;;;;2.92;1.67;;;7.50;77.70;;;;;;4916625;29;20028;-83
2023/03/05 08:25:41;;;;;;;1.75;1.52;;;7.60;77.70;;;;;;4901009;29;20028;-83
2023/03/05 08:28:07;;;;;;;2.20;1.60;;;7.60;77.70;;;;;;4917505;29;20107;-83
2023/03/05 08:30:33;;;;;;;2.05;1.77;;;7.60;77.70;;;;;;4932016;29;20422;-83
2023/03/05 08:32:59;;;;;;;1.50;1.40;;;7.60;77.80;;;;;;4901418;29;20108;-83
2023/03/05 08:35:24;;;;;;;2.28;1.80;;;7.60;77.70;;;;;;4922928;29;20039;-82
2023/03/05 08:37:50;;;;;;;2.33;1.50;;;7.60;77.70;;;;;;4936605;29;20527;-83
2023/03/05 08:40:17;;;;;;;1.98;1.70;;;7.60;77.70;;;;;;4902877;29;20400;-81
2023/03/05 08:42:43;;;;;;;1.50;1.40;;;7.60;77.70;;;;;;4917165;29;20040;-83
2023/03/05 08:45:09;;;;;;;1.88;1.75;;;7.70;77.80;;;;;;4931925;29;20036;-82
2023/03/05 08:47:35;;;;;;;2.25;2.00;;;7.70;77.70;;;;;;4900196;29;20047;-84
2023/03/05 08:50:01;;;;;;;1.88;1.70;;;7.70;78.30;;;;;;4931682;29;20040;-80
2023/03/05 08:52:27;;;;;;;2.40;1.70;;;7.70;77.70;;;;;;4919141;29;20051;-83
2023/03/05 08:54:53;;;;;;;3.20;1.80;;;7.70;77.60;;;;;;4919409;29;20029;-81
2023/03/05 08:57:18;;;;;;;1.70;1.60;;;7.70;77.60;;;;;;4921209;29;20123;-81
2023/03/05 08:59:44;;;;;;;2.15;1.90;;;7.70;77.60;;;;;;4903863;29;20083;-82
2023/03/05 09:02:12;;;;;;;3.22;1.90;;;7.80;77.70;;;;;;4904693;29;20091;-82
2023/03/05 09:04:38;;;;;;;2.22;1.60;;;7.80;77.70;;;;;;4904252;29;20028;-82
2023/03/05 09:07:04;;;;;;;2.00;1.75;;;7.80;77.60;;;;;;4935204;29;20024;-83
2023/03/05 09:09:32;;;;;;;2.05;1.73;;;7.80;77.60;;;;;;4903822;29;20119;-81
2023/03/05 09:12:02;;;;;;;2.78;1.70;;;7.80;77.60;;;;;;4903500;29;20211;-81
2023/03/05 09:14:28;;;;;;;2.00;1.73;;;7.90;77.70;;;;;;4904121;29;20036;-82
2023/03/05 09:16:57;;;;;;;2.58;1.60;;;7.90;77.60;;;;;;4919386;29;20051;-83
2023/03/05 09:19:23;;;;;;;1.90;1.73;;;7.90;77.60;;;;;;4935360;29;20042;-83
2023/03/05 09:21:49;;;;;;;2.20;1.38;;;7.90;77.50;;;;;;4903567;29;20028;-81
2023/03/05 09:24:15;;;;;;;2.10;1.70;;;7.90;77.50;;;;;;4903287;29;20249;-82
2023/03/05 09:26:41;;;;;;;1.50;1.40;;;8.00;77.50;;;;;;4919485;29;20039;-83
2023/03/05 09:29:07;;;;;;;4.05;1.50;;;8.00;77.40;;;;;;4919741;29;20035;-83
2023/03/05 09:31:36;;;;;;;2.42;1.48;;;8.00;77.40;;;;;;4935707;29;20500;-85
2023/03/05 09:34:05;;;;;;;1.98;1.60;;;8.10;77.50;;;;;;4903969;29;20051;-85
2023/03/05 09:36:31;;;;;;;1.60;1.50;;;8.10;77.40;;;;;;4919232;29;20040;-82
2023/03/05 09:38:57;;;;;;;2.03;1.60;;;8.10;77.40;;;;;;4903545;29;20044;-83
2023/03/05 09:42:00;;;;;;;2.80;1.40;;;8.10;77.30;;;;;;4918746;29;20060;-82
2023/03/05 09:44:50;;;;;;;1.80;1.58;;;8.20;77.40;;;;;;4919532;29;20036;-82
2023/03/05 09:47:33;;;;;;;1.83;1.52;;;8.20;77.30;;;;;;4934997;29;20039;-82
2023/03/05 09:50:07;;;;;;;1.40;1.30;;;8.20;77.30;;;;;;4902845;29;20067;-82
2023/03/05 09:52:44;;;;;;;1.40;1.30;;;8.20;77.30;;;;;;4935081;29;20036;-83
2023/03/05 09:55:27;;;;;;;2.08;1.40;;;8.20;77.30;;;;;;4903731;29;20085;-84
2023/03/05 09:57:57;;;;;;;1.40;1.30;;;8.20;77.30;;;;;;4903199;29;20047;-84
2023/03/05 10:00:40;;;;;;;1.67;1.58;;;8.30;77.30;;;;;;4903091;29;20040;-82
2023/03/05 10:03:16;;;;;;;1.70;1.60;;;8.30;77.30;;;;;;4918901;29;20052;-83
2023/03/05 10:05:59;;;;;;;1.65;1.55;;;8.30;77.20;;;;;;4919673;29;20032;-83
2023/03/05 10:08:40;;;;;;;2.55;1.40;;;8.40;77.30;;;;;;4919629;29;20025;-83
2023/03/05 10:11:22;;;;;;;1.75;1.65;;;8.40;77.20;;;;;;4902923;29;20036;-83
2023/03/05 10:13:49;;;;;;;1.85;1.55;;;8.40;77.10;;;;;;4918579;29;20131;-82
2023/03/05 10:16:39;;;;;;;1.40;1.30;;;8.40;77.10;;;;;;4918369;29;20507;-83
2023/03/05 10:19:16;;;;;;;2.42;1.77;;;8.50;77.10;;;;;;4918229;29;20024;-86
2023/03/05 10:21:54;;;;;;;1.55;1.42;;;8.50;77.10;;;;;;4934940;29;20052;-83
2023/03/05 10:24:39;;;;;;;1.90;1.60;;;8.60;77.10;;;;;;4918528;29;20032;-87
2023/03/05 10:27:31;;;;;;;1.60;1.50;;;8.50;77.00;;;;;;4934591;29;20067;-87
2023/03/05 10:30:17;;;;;;;1.48;1.38;;;8.60;77.00;;;;;;4934595;29;20122;-86
2023/03/05 10:32:49;;;;;;;3.53;1.65;;;8.60;77.00;;;;;;4934418;29;20390;-84
2023/03/05 10:35:52;;;;;;;1.50;1.40;;;8.60;77.00;;;;;;4934527;29;20131;-83
2023/03/05 10:38:27;;;;;;;1.52;1.40;;;8.60;77.10;;;;;;4934514;29;20114;-84
2023/03/05 10:40:59;;;;;;;2.17;1.60;;;8.70;77.00;;;;;;4919202;29;20068;-84
2023/03/05 10:43:46;;;;;;;1.20;1.20;;;8.70;77.10;;;;;;4886882;29;20024;-83
2023/03/05 10:46:16;;;;;;;1.48;1.38;;;8.70;77.10;;;;;;4918117;29;20042;-84
2023/03/05 10:48:44;;;;;;;1.60;1.50;;;8.70;77.00;;;;;;4918246;29;20032;-85
2023/03/05 10:51:18;;;;;;;1.92;1.60;;;8.80;77.00;;;;;;4933814;29;20087;-83
2023/03/05 10:54:00;;;;;;;2.03;1.33;;;8.80;77.00;;;;;;4918924;29;20075;-84
2023/03/05 10:56:28;;;;;;;2.28;1.70;;;8.80;77.00;;;;;;4902672;29;20494;-82
2023/03/05 10:58:54;;;;;;;2.15;1.40;;;8.80;76.90;;;;;;4917668;29;20059;-83
2023/03/05 11:01:21;;;;;;;1.50;1.40;;;8.90;76.90;;;;;;4918446;29;20075;-82
2023/03/05 11:04:23;;;;;;;2.45;2.08;;;8.90;76.80;;;;;;4918603;29;20063;-82
2023/03/05 11:06:49;;;;;;;2.17;1.40;;;9.00;76.80;;;;;;4902148;29;20480;-84
2023/03/05 11:09:27;;;;;;;1.40;1.30;;;9.00;76.70;;;;;;4923323;29;20032;-82
2023/03/05 11:12:17;;;;;;;1.55;1.42;;;9.00;76.70;;;;;;4923957;29;20032;-81
2023/03/05 11:15:00;;;;;;;1.52;1.42;;;9.00;76.80;;;;;;4902910;29;20039;-82
2023/03/05 11:17:34;;;;;;;1.50;1.40;;;9.00;76.70;;;;;;4934401;29;20036;-82
2023/03/05 11:20:25;;;;;;;1.60;1.33;;;9.10;76.70;;;;;;4901098;29;20040;-85
2023/03/05 11:23:16;;;;;;;1.45;1.35;;;9.10;76.80;;;;;;4932726;29;20060;-82
2023/03/05 11:26:01;;;;;;;1.40;1.30;;;9.10;76.70;;;;;;4903293;29;20032;-82
2023/03/05 11:28:47;;;;;;;1.63;1.45;;;9.20;76.70;;;;;;4933673;29;20120;-84
2023/03/05 11:31:17;;;;;;;1.95;1.85;;;9.20;76.60;;;;;;4894501;29;20060;-83
2023/03/05 11:34:19;;;;;;;1.50;1.40;;;9.20;76.60;;;;;;4932679;29;20131;-82
2023/03/05 11:36:57;;;;;;;1.52;1.40;;;9.30;76.60;;;;;;4902064;29;20088;-82
2023/03/05 11:39:24;;;;;;;1.67;1.40;;;9.30;76.50;;;;;;4933070;29;20107;-81
2023/03/05 11:41:52;;;;;;;1.40;1.30;;;9.30;76.50;;;;;;4932810;29;20123;-81
2023/03/05 11:44:33;;;;;;;1.90;1.33;;;9.40;76.50;;;;;;4917849;29;20040;-82
2023/03/05 11:47:09;;;;;;;1.40;1.30;;;9.40;76.60;;;;;;4900981;29;20503;-82
2023/03/05 11:49:42;;;;;;;1.42;1.33;;;9.40;76.50;;;;;;4917292;29;20024;-83
2023/03/05 11:52:10;;;;;;;1.77;1.27;;;9.50;76.40;;;;;;4932710;29;20046;-81
2023/03/05 11:54:47;;;;;;;1.48;1.38;;;9.50;76.30;;;;;;4932419;29;20083;-81
2023/03/05 11:57:15;;;;;;;1.33;1.20;;;9.60;76.40;;;;;;4932533;29;20032;-81
2023/03/05 11:59:42;;;;;;;2.80;1.60;;;9.60;76.30;;;;;;4900687;29;20051;-81
2023/03/05 12:02:26;;;;;;;1.30;1.20;;;9.70;76.40;;;;;;4900905;29;20036;-82
2023/03/05 12:04:52;;;;;;;1.45;1.35;;;9.70;76.40;;;;;;4900857;29;20039;-82
2023/03/05 12:07:36;;;;;;;1.55;1.45;;;9.70;76.30;;;;;;4900726;29;20039;-82
2023/03/05 12:10:02;;;;;;;1.65;1.55;;;9.70;76.40;;;;;;4901066;29;20040;-84
2023/03/05 12:12:46;;;;;;;1.48;1.38;;;9.80;76.30;;;;;;4900980;29;20028;-83
2023/03/05 12:15:30;;;;;;;1.65;1.40;;;9.80;76.30;;;;;;4932591;29;20036;-81
2023/03/05 12:18:30;;;;;;;1.55;1.40;;;9.90;76.90;;;;;;4917278;29;20024;-82
2023/03/05 12:21:24;;;;;;;1.30;1.20;;;9.90;76.30;;;;;;4900855;29;20032;-82
2023/03/05 12:23:53;;;;;;;1.85;1.30;;;10.00;76.20;;;;;;4895856;29;20040;-82
2023/03/05 12:26:58;;;;;;;1.40;1.30;;;10.00;76.20;;;;;;4917747;29;20028;-83
2023/03/05 12:29:41;;;;;;;1.58;1.48;;;10.00;76.30;;;;;;4936194;29;20461;-82
2023/03/05 12:32:27;;;;;;;1.45;1.35;;;10.10;76.30;;;;;;4904450;29;20084;-84
2023/03/05 12:35:18;;;;;;;1.40;1.20;;;10.10;76.30;;;;;;4897313;29;20079;-82
2023/03/05 12:37:43;;;;;;;1.50;1.40;;;10.10;76.20;;;;;;4936236;29;20032;-82
2023/03/05 12:40:22;;;;;;;1.45;1.35;;;10.10;76.10;;;;;;4920183;29;20127;-82
2023/03/05 12:43:04;;;;;;;1.90;1.38;;;10.20;76.20;;;;;;4903938;29;20058;-82
2023/03/05 12:45:31;;;;;;;1.20;1.20;;;10.20;76.20;;;;;;4904505;29;20102;-82
2023/03/05 12:47:56;;;;;;;1.33;1.23;;;10.20;76.10;;;;;;4935525;29;20103;-84
2023/03/05 12:50:28;;;;;;;2.30;1.60;;;10.30;76.10;;;;;;4935622;29;20476;-89
2023/03/05 12:53:03;;;;;;;1.27;1.27;;;10.30;76.10;;;;;;4920673;29;20075;-84
2023/03/05 12:55:32;;;;;;;1.33;1.23;;;10.30;76.10;;;;;;4920670;29;20037;-84
2023/03/05 12:58:19;;;;;;;1.70;1.60;;;10.40;76.10;;;;;;4920237;29;20049;-86
2023/03/05 13:01:13;;;;;;;2.28;1.30;;;10.40;76.10;;;;;;4904077;29;20092;-84
2023/03/05 13:04:13;;;;;;;1.48;1.38;;;10.40;76.10;;;;;;4935591;29;20047;-85
2023/03/05 13:06:39;;;;;;;1.45;1.25;;;10.40;76.00;;;;;;4887198;29;20044;-85
2023/03/05 13:09:30;;;;;;;1.40;1.30;;;10.50;76.00;;;;;;4919428;29;20047;-84